createdAt,value
2023-01-17T00:00:28.363Z,7.03
2023-01-17T00:02:58.410Z,7.03
2023-01-17T00:05:55.685Z,6.93
2023-01-17T00:08:38.127Z,6.88
2023-01-17T00:11:11.802Z,6.88
2023-01-17T00:13:41.814Z,6.83
2023-01-17T00:16:17.712Z,6.76
2023-01-17T00:19:07.665Z,6.75
2023-01-17T00:21:50.068Z,6.80
2023-01-17T00:24:32.441Z,6.77
2023-01-17T00:27:14.914Z,6.69
2023-01-17T00:29:42.061Z,6.64
2023-01-17T00:32:11.771Z,6.59
2023-01-17T00:34:39.146Z,6.58
2023-01-17T00:37:06.300Z,6.53
2023-01-17T00:39:33.647Z,6.62
2023-01-17T00:42:04.568Z,6.61
2023-01-17T00:44:47.201Z,6.62
2023-01-17T00:47:32.208Z,6.57
2023-01-17T00:50:17.075Z,6.53
2023-01-17T00:52:59.612Z,6.55
2023-01-17T00:55:42.046Z,6.50
2023-01-17T00:58:25.229Z,6.42
2023-01-17T01:01:07.642Z,6.39
2023-01-17T01:03:52.800Z,6.43
2023-01-17T01:06:35.329Z,6.50
2023-01-17T01:09:17.654Z,6.47
2023-01-17T01:12:00.002Z,6.47
2023-01-17T01:14:42.576Z,6.47
2023-01-17T01:17:25.061Z,6.50
2023-01-17T01:20:10.011Z,6.46
2023-01-17T01:22:52.443Z,6.40
2023-01-17T01:25:34.797Z,6.41
2023-01-17T01:28:21.921Z,6.36
2023-01-17T01:31:04.291Z,6.33
2023-01-17T01:33:31.389Z,6.33
2023-01-17T01:36:03.974Z,6.38
2023-01-17T01:38:35.112Z,6.37
2023-01-17T01:41:05.702Z,6.38
2023-01-17T01:43:48.061Z,6.38
2023-01-17T01:46:22.960Z,6.46
2023-01-17T01:48:57.675Z,6.50
2023-01-17T01:51:34.682Z,6.59
2023-01-17T01:54:10.332Z,6.53
2023-01-17T01:56:42.214Z,6.62
2023-01-17T01:59:18.522Z,6.66
2023-01-17T02:01:49.470Z,6.61
2023-01-17T02:04:20.695Z,6.58
2023-01-17T02:07:00.865Z,6.57
2023-01-17T02:09:31.267Z,6.57
2023-01-17T02:12:01.973Z,6.56
2023-01-17T02:14:31.983Z,6.55
2023-01-17T02:17:15.582Z,6.59
2023-01-17T02:20:24.835Z,6.59
2023-01-17T02:23:37.088Z,6.64
2023-01-17T02:26:38.038Z,6.70
2023-01-17T02:29:40.474Z,6.70
2023-01-17T02:32:17.783Z,6.54
2023-01-17T02:34:52.991Z,6.67
2023-01-17T02:37:28.779Z,6.65
2023-01-17T02:40:06.432Z,6.69
2023-01-17T02:42:41.479Z,6.65
2023-01-17T02:45:17.551Z,6.69
2023-01-17T02:47:50.211Z,6.78
2023-01-17T02:50:23.503Z,6.77
2023-01-17T02:53:12.034Z,6.78
2023-01-17T02:55:56.637Z,6.80
2023-01-17T02:58:48.940Z,6.90
2023-01-17T03:01:30.204Z,6.82
2023-01-17T03:04:07.469Z,6.81
2023-01-17T03:06:43.080Z,6.81
2023-01-17T03:09:13.524Z,6.93
2023-01-17T03:11:43.653Z,6.94
2023-01-17T03:14:13.649Z,6.84
2023-01-17T03:16:44.219Z,6.84
2023-01-17T03:19:16.833Z,6.92
2023-01-17T03:21:46.900Z,6.89
2023-01-17T03:24:16.847Z,6.89
2023-01-17T03:26:48.024Z,6.96
2023-01-17T03:29:18.315Z,6.95
2023-01-17T03:31:48.597Z,6.98
2023-01-17T03:34:21.410Z,6.96
2023-01-17T03:36:51.313Z,6.99
2023-01-17T03:39:21.280Z,6.98
2023-01-17T03:41:51.292Z,7.07
2023-01-17T03:44:21.536Z,7.12
2023-01-17T03:46:51.542Z,7.15
2023-01-17T03:49:24.107Z,7.20
2023-01-17T03:51:54.088Z,7.21
2023-01-17T03:54:24.089Z,7.21
2023-01-17T03:56:54.039Z,7.20
2023-01-17T03:59:24.032Z,7.18
2023-01-17T04:01:53.981Z,7.15
2023-01-17T04:04:26.723Z,7.18
2023-01-17T04:06:56.694Z,7.21
2023-01-17T04:09:26.905Z,7.15
2023-01-17T04:11:57.082Z,7.16
2023-01-17T04:14:27.086Z,7.24
2023-01-17T04:16:57.643Z,7.25
2023-01-17T04:19:30.532Z,7.23
2023-01-17T04:22:02.174Z,7.25
2023-01-17T04:24:32.259Z,7.21
2023-01-17T04:27:02.361Z,7.28
2023-01-17T04:29:32.455Z,7.28
2023-01-17T04:32:02.539Z,7.30
2023-01-17T04:34:35.138Z,7.21
2023-01-17T04:37:05.172Z,7.20
2023-01-17T04:39:35.193Z,7.27
2023-01-17T04:42:05.647Z,7.29
2023-01-17T04:44:37.602Z,7.27
2023-01-17T04:47:07.761Z,7.29
2023-01-17T04:49:40.314Z,7.28
2023-01-17T04:52:15.164Z,7.33
2023-01-17T04:54:45.127Z,7.36
2023-01-17T04:57:15.527Z,7.43
2023-01-17T04:59:45.573Z,7.47
2023-01-17T05:02:16.733Z,7.46
2023-01-17T05:04:49.491Z,7.55
2023-01-17T05:07:22.402Z,7.44
2023-01-17T05:09:52.365Z,7.41
2023-01-17T05:12:22.318Z,7.39
2023-01-17T05:14:52.230Z,7.40
2023-01-17T05:17:22.312Z,7.33
2023-01-17T05:19:54.945Z,7.39
2023-01-17T05:22:24.890Z,7.41
2023-01-17T05:24:54.884Z,7.35
2023-01-17T05:27:24.852Z,7.29
2023-01-17T05:29:55.256Z,7.31
2023-01-17T05:32:25.196Z,7.22
2023-01-17T05:34:57.744Z,7.10
2023-01-17T05:37:27.789Z,7.05
2023-01-17T05:39:57.726Z,7.09
2023-01-17T05:42:28.632Z,7.17
2023-01-17T05:45:02.998Z,7.10
2023-01-17T05:47:33.125Z,6.97
2023-01-17T05:50:05.677Z,6.95
2023-01-17T05:52:35.673Z,6.95
2023-01-17T05:55:07.601Z,6.98
2023-01-17T05:57:37.935Z,7.07
2023-01-17T06:00:09.186Z,7.03
2023-01-17T06:02:39.237Z,7.04
2023-01-17T06:05:15.973Z,7.06
2023-01-17T06:07:48.411Z,7.10
2023-01-17T06:10:20.832Z,7.16
2023-01-17T06:12:51.564Z,7.12
2023-01-17T06:15:21.593Z,7.12
2023-01-17T06:17:51.510Z,7.17
2023-01-17T06:20:24.189Z,7.17
2023-01-17T06:22:55.380Z,7.06
2023-01-17T06:25:25.400Z,7.06
2023-01-17T06:27:55.427Z,7.07
2023-01-17T06:30:25.730Z,7.07
2023-01-17T06:32:56.561Z,7.08
2023-01-17T06:35:29.157Z,7.07
2023-01-17T06:38:00.543Z,7.07
2023-01-17T06:40:31.643Z,7.11
2023-01-17T06:43:03.711Z,7.13
2023-01-17T06:45:35.096Z,7.00
2023-01-17T06:48:05.561Z,7.00
2023-01-17T06:50:38.299Z,6.94
2023-01-17T06:53:09.602Z,6.95
2023-01-17T06:55:41.393Z,6.90
2023-01-17T06:58:12.261Z,6.94
2023-01-17T07:00:45.877Z,6.94
2023-01-17T07:03:22.755Z,6.99
2023-01-17T07:05:55.906Z,6.93
2023-01-17T07:08:25.916Z,7.03
2023-01-17T07:11:01.790Z,7.05
2023-01-17T07:13:34.323Z,7.13
2023-01-17T07:16:06.532Z,7.02
2023-01-17T07:18:37.461Z,6.98
2023-01-17T07:21:15.987Z,7.00
2023-01-17T07:23:45.928Z,7.06
2023-01-17T07:26:17.338Z,7.03
2023-01-17T07:28:47.323Z,6.97
2023-01-17T07:31:17.324Z,6.99
2023-01-17T07:33:47.356Z,6.94
2023-01-17T07:36:19.930Z,7.00
2023-01-17T07:38:54.328Z,6.96
2023-01-17T07:41:24.597Z,6.96
2023-01-17T07:43:56.315Z,7.05
2023-01-17T07:46:28.263Z,6.99
2023-01-17T07:48:58.232Z,7.03
2023-01-17T07:51:31.162Z,6.96
2023-01-17T07:54:01.419Z,6.92
2023-01-17T07:56:31.394Z,6.89
2023-01-17T07:59:01.635Z,6.97
2023-01-17T08:01:31.721Z,6.90
2023-01-17T08:04:02.080Z,6.89
2023-01-17T08:06:35.078Z,6.94
2023-01-17T08:09:05.353Z,6.87
2023-01-17T08:11:35.334Z,7.02
2023-01-17T08:14:06.156Z,7.12
2023-01-17T08:16:37.721Z,7.11
2023-01-17T08:19:07.796Z,7.46
2023-01-17T08:21:40.568Z,7.69
2023-01-17T08:24:15.291Z,7.88
2023-01-17T08:26:45.427Z,7.92
2023-01-17T08:29:15.650Z,7.83
2023-01-17T08:32:00.592Z,7.70
2023-01-17T08:34:30.580Z,7.77
2023-01-17T08:37:03.186Z,8.02
2023-01-17T08:39:33.136Z,8.02
2023-01-17T08:42:03.406Z,7.83
2023-01-17T08:44:33.426Z,7.82
2023-01-17T08:47:04.249Z,7.86
2023-01-17T08:49:34.286Z,7.79
2023-01-17T08:52:09.363Z,7.72
2023-01-17T08:54:39.409Z,7.67
2023-01-17T08:57:10.506Z,7.54
2023-01-17T08:59:40.469Z,7.39
2023-01-17T09:02:16.602Z,7.35
2023-01-17T09:04:48.218Z,7.39
2023-01-17T09:07:24.464Z,7.43
2023-01-17T09:09:54.540Z,7.44
2023-01-17T09:12:24.596Z,7.44
2023-01-17T09:14:54.567Z,7.50
2023-01-17T09:17:24.677Z,7.59
2023-01-17T09:19:54.691Z,7.71
2023-01-17T09:22:27.348Z,7.82
2023-01-17T09:24:57.599Z,7.98
2023-01-17T09:27:27.815Z,7.93
2023-01-17T09:29:57.806Z,7.98
2023-01-17T09:32:27.820Z,7.98
2023-01-17T09:34:57.986Z,7.91
2023-01-17T09:37:30.744Z,7.78
2023-01-17T09:40:00.704Z,7.81
2023-01-17T09:42:36.733Z,7.83
2023-01-17T09:45:07.989Z,7.97
2023-01-17T09:47:41.063Z,7.87
2023-01-17T09:50:29.976Z,7.83
2023-01-17T09:53:05.747Z,7.77
2023-01-17T09:55:40.326Z,7.81
2023-01-17T09:58:14.951Z,7.76
2023-01-17T10:00:54.658Z,7.59
2023-01-17T10:03:33.830Z,7.56
2023-01-17T10:06:18.430Z,7.61
2023-01-17T10:09:08.420Z,7.77
2023-01-17T10:11:48.855Z,7.88
2023-01-17T10:14:36.452Z,7.92
2023-01-17T10:17:16.475Z,7.85
2023-01-17T10:20:07.673Z,7.84
2023-01-17T10:22:57.243Z,7.92
2023-01-17T10:25:43.052Z,7.99
2023-01-17T10:28:19.040Z,7.99
2023-01-17T10:30:52.538Z,7.92
2023-01-17T10:33:24.370Z,7.95
2023-01-17T10:35:59.877Z,7.96
2023-01-17T10:38:35.853Z,7.97
2023-01-17T10:41:16.482Z,7.96
2023-01-17T10:43:55.255Z,8.00
2023-01-17T10:46:30.623Z,8.05
2023-01-17T10:49:01.309Z,8.06
2023-01-17T10:52:01.721Z,7.85
2023-01-17T10:54:47.046Z,7.66
2023-01-17T10:57:23.306Z,7.62
2023-01-17T10:59:56.476Z,7.58
2023-01-17T11:02:29.274Z,7.63
2023-01-17T11:05:05.658Z,7.75
2023-01-17T11:07:35.776Z,7.77
2023-01-17T11:10:05.786Z,7.71
2023-01-17T11:12:43.664Z,7.74
2023-01-17T11:15:35.700Z,7.78
2023-01-17T11:18:08.833Z,7.71
2023-01-17T11:20:43.067Z,7.68
2023-01-17T11:23:22.980Z,7.69
2023-01-17T11:25:55.906Z,7.70
2023-01-17T11:28:31.531Z,7.75
2023-01-17T11:31:04.492Z,7.70
2023-01-17T11:33:45.555Z,7.76
2023-01-17T11:36:23.357Z,7.68
2023-01-17T11:39:14.771Z,7.64
2023-01-17T11:41:45.207Z,7.60
2023-01-17T11:44:28.423Z,7.59
2023-01-17T11:47:21.620Z,7.46
2023-01-17T11:49:52.511Z,7.14
2023-01-17T11:52:29.214Z,6.96
2023-01-17T11:54:59.774Z,6.82
2023-01-17T11:57:33.444Z,6.74
2023-01-17T12:00:22.437Z,6.82
2023-01-17T12:03:14.029Z,6.86
2023-01-17T12:05:57.341Z,6.77
2023-01-17T12:08:37.488Z,6.89
2023-01-17T12:11:16.708Z,6.89
2023-01-17T12:14:02.918Z,6.96
2023-01-17T12:16:56.296Z,7.33
2023-01-17T12:19:38.200Z,8.38
2023-01-17T12:22:23.677Z,9.39
2023-01-17T12:25:21.737Z,9.26
2023-01-17T12:28:01.789Z,9.57
2023-01-17T12:30:47.197Z,10.11
2023-01-17T12:33:30.539Z,10.35
2023-01-17T12:36:04.927Z,9.91
2023-01-17T12:38:38.989Z,9.74
2023-01-17T12:41:13.157Z,9.50
2023-01-17T12:43:47.944Z,9.12
2023-01-17T12:46:24.092Z,8.62
2023-01-17T12:49:01.600Z,8.23
2023-01-17T12:51:35.498Z,7.99
2023-01-17T12:54:13.079Z,7.77
2023-01-17T12:56:48.957Z,7.62
2023-01-17T12:59:28.584Z,7.55
2023-01-17T13:02:00.371Z,7.49
2023-01-17T13:04:57.074Z,7.46
2023-01-17T13:07:36.258Z,7.59
2023-01-17T13:10:22.299Z,7.59
2023-01-17T13:12:53.875Z,7.49
2023-01-17T13:15:30.040Z,7.44
2023-01-17T13:18:09.642Z,7.46
2023-01-17T13:21:07.879Z,7.50
2023-01-17T13:23:59.577Z,7.62
2023-01-17T13:26:40.013Z,7.71
2023-01-17T13:29:23.384Z,7.75
2023-01-17T13:32:03.050Z,7.88
2023-01-17T13:35:11.036Z,8.40
2023-01-17T13:38:02.297Z,9.20
2023-01-17T13:40:38.030Z,9.08
2023-01-17T13:43:14.920Z,8.81
2023-01-17T13:45:55.142Z,8.57
2023-01-17T13:48:34.637Z,8.62
2023-01-17T13:51:05.501Z,8.76
2023-01-17T13:54:05.270Z,9.11
2023-01-17T13:56:38.797Z,9.18
2023-01-17T13:59:30.688Z,8.70
2023-01-17T14:02:00.786Z,8.36
2023-01-17T14:05:00.693Z,8.06
2023-01-17T14:07:31.836Z,7.94
2023-01-17T14:10:04.799Z,7.89
2023-01-17T14:12:35.893Z,7.90
2023-01-17T14:15:23.394Z,7.82
2023-01-17T14:18:00.280Z,7.78
2023-01-17T14:20:54.799Z,7.70
2023-01-17T14:24:04.060Z,7.59
2023-01-17T14:26:58.971Z,7.65
2023-01-17T14:29:47.539Z,7.59
2023-01-17T14:32:20.500Z,7.48
2023-01-17T14:34:53.555Z,7.40
2023-01-17T14:37:31.905Z,7.47
2023-01-17T14:40:03.242Z,7.38
2023-01-17T14:42:36.436Z,7.36
2023-01-17T14:45:09.851Z,7.34
2023-01-17T14:47:42.340Z,7.30
2023-01-17T14:50:15.098Z,7.24
2023-01-17T14:52:45.067Z,7.19
2023-01-17T14:55:19.117Z,7.10
2023-01-17T14:57:59.391Z,6.90
2023-01-17T15:00:30.561Z,6.81
2023-01-17T15:03:02.337Z,6.80
2023-01-17T15:05:33.044Z,6.85
2023-01-17T15:08:04.307Z,6.77
2023-01-17T15:10:35.560Z,6.87
2023-01-17T15:13:13.407Z,6.96
2023-01-17T15:15:46.473Z,6.99
2023-01-17T15:18:31.425Z,7.02
2023-01-17T15:21:05.757Z,7.00
2023-01-17T15:23:39.222Z,6.98
2023-01-17T15:26:13.955Z,6.87
2023-01-17T15:28:48.828Z,6.70
2023-01-17T15:31:23.051Z,6.47
2023-01-17T15:34:02.145Z,6.46
2023-01-17T15:36:34.702Z,6.46
2023-01-17T15:39:21.259Z,6.43
2023-01-17T15:41:54.770Z,6.30
2023-01-17T15:44:50.253Z,6.24
2023-01-17T15:47:32.853Z,6.14
2023-01-17T15:50:04.201Z,6.10
2023-01-17T15:52:34.231Z,6.08
2023-01-17T15:55:15.663Z,6.12
2023-01-17T15:57:49.424Z,6.11
2023-01-17T16:00:36.561Z,6.11
2023-01-17T16:03:24.246Z,6.14
2023-01-17T16:05:57.822Z,6.12
2023-01-17T16:08:30.889Z,6.07
2023-01-17T16:11:06.254Z,6.05
2023-01-17T16:13:40.109Z,6.07
2023-01-17T16:16:22.193Z,6.08
2023-01-17T16:18:58.692Z,6.03
2023-01-17T16:21:31.034Z,5.97
2023-01-17T16:24:02.931Z,5.89
2023-01-17T16:26:32.944Z,5.87
2023-01-17T16:29:02.978Z,5.81
2023-01-17T16:31:36.926Z,5.80
2023-01-17T16:34:14.267Z,5.73
2023-01-17T16:36:44.211Z,5.65
2023-01-17T16:39:17.008Z,5.63
2023-01-17T16:41:46.916Z,5.64
2023-01-17T16:44:16.968Z,5.63
2023-01-17T16:46:49.505Z,5.62
2023-01-17T16:49:19.572Z,5.61
2023-01-17T16:51:50.030Z,5.63
2023-01-17T16:54:19.954Z,5.63
2023-01-17T16:56:49.993Z,5.59
2023-01-17T16:59:20.052Z,5.53
2023-01-17T17:01:53.055Z,5.49
2023-01-17T17:04:23.186Z,5.50
2023-01-17T17:06:53.211Z,5.49
2023-01-17T17:09:23.235Z,5.48
2023-01-17T17:11:53.243Z,5.43
2023-01-17T17:14:23.375Z,5.34
2023-01-17T17:16:56.307Z,5.36
2023-01-17T17:19:28.540Z,5.42
2023-01-17T17:22:01.677Z,5.44
2023-01-17T17:24:31.879Z,5.39
2023-01-17T17:27:01.855Z,5.40
2023-01-17T17:29:31.782Z,5.43
2023-01-17T17:32:04.611Z,5.46
2023-01-17T17:34:36.706Z,5.43
2023-01-17T17:37:06.704Z,5.40
2023-01-17T17:39:36.947Z,5.36
2023-01-17T17:42:10.051Z,5.33
2023-01-17T17:44:40.526Z,5.31
2023-01-17T17:47:13.158Z,5.34
2023-01-17T17:49:43.538Z,5.29
2023-01-17T17:52:14.977Z,5.21
2023-01-17T17:54:45.334Z,5.11
2023-01-17T17:57:18.244Z,5.15
2023-01-17T17:59:48.394Z,5.19
2023-01-17T18:02:23.217Z,5.28
2023-01-17T18:04:53.339Z,5.33
2023-01-17T18:07:23.398Z,5.36
2023-01-17T18:09:54.117Z,5.34
2023-01-17T18:12:29.666Z,5.30
2023-01-17T18:14:59.680Z,5.15
2023-01-17T18:17:32.685Z,5.16
2023-01-17T18:20:02.904Z,5.23
2023-01-17T18:22:35.109Z,5.28
2023-01-17T18:25:08.356Z,5.27
2023-01-17T18:27:41.804Z,5.18
2023-01-17T18:30:18.020Z,5.08
2023-01-17T18:32:51.272Z,5.09
2023-01-17T18:35:21.521Z,5.10
2023-01-17T18:37:52.998Z,5.08
2023-01-17T18:40:23.083Z,5.09
2023-01-17T18:42:53.357Z,5.12
2023-01-17T18:45:26.183Z,5.13
2023-01-17T18:47:59.646Z,5.12
2023-01-17T18:50:29.646Z,5.12
2023-01-17T18:52:59.763Z,5.12
2023-01-17T18:55:30.546Z,5.09
2023-01-17T18:58:01.659Z,5.05
2023-01-17T19:00:31.648Z,5.02
2023-01-17T19:03:06.802Z,4.99
2023-01-17T19:05:38.814Z,4.86
2023-01-17T19:08:09.615Z,4.65
2023-01-17T19:10:41.798Z,4.64
2023-01-17T19:13:12.220Z,4.66
2023-01-17T19:15:42.221Z,4.67
2023-01-17T19:18:15.131Z,4.72
2023-01-17T19:20:47.773Z,4.74
2023-01-17T19:23:17.987Z,4.77
2023-01-17T19:25:47.954Z,4.77
2023-01-17T19:28:17.913Z,4.77
2023-01-17T19:30:48.047Z,4.76
2023-01-17T19:33:20.608Z,4.69
2023-01-17T19:35:54.137Z,4.70
2023-01-17T19:38:24.149Z,4.68
2023-01-17T19:40:54.241Z,4.56
2023-01-17T19:43:24.373Z,4.47
2023-01-17T19:46:01.365Z,4.45
2023-01-17T19:48:34.317Z,4.38
2023-01-17T19:51:09.153Z,4.32
2023-01-17T19:53:40.444Z,4.31
2023-01-17T19:56:12.106Z,4.31
2023-01-17T19:58:42.220Z,4.29
2023-01-17T20:01:14.423Z,4.26
2023-01-17T20:03:51.131Z,4.24
2023-01-17T20:06:23.932Z,4.29
2023-01-17T20:08:54.036Z,4.29
2023-01-17T20:11:26.388Z,4.30
2023-01-17T20:13:58.323Z,4.30
2023-01-17T20:16:30.114Z,4.27
2023-01-17T20:19:03.091Z,4.24
2023-01-17T20:21:34.497Z,4.23
2023-01-17T20:24:06.008Z,4.22
2023-01-17T20:26:37.718Z,4.23
2023-01-17T20:29:10.683Z,4.25
2023-01-17T20:31:42.781Z,4.21
2023-01-17T20:34:19.735Z,4.21
2023-01-17T20:36:50.245Z,4.20
2023-01-17T20:39:20.204Z,4.21
2023-01-17T20:41:51.556Z,4.21
2023-01-17T20:44:24.027Z,4.19
2023-01-17T20:46:54.044Z,4.13
2023-01-17T20:49:26.842Z,4.12
2023-01-17T20:51:57.992Z,4.12
2023-01-17T20:54:27.938Z,4.11
2023-01-17T20:56:59.835Z,4.08
2023-01-17T20:59:29.772Z,4.08
2023-01-17T21:02:00.203Z,4.11
2023-01-17T21:04:33.020Z,4.14
2023-01-17T21:07:03.035Z,4.12
2023-01-17T21:09:32.986Z,4.10
2023-01-17T21:12:03.711Z,4.04
2023-01-17T21:14:33.649Z,3.99
2023-01-17T21:17:03.659Z,3.94
2023-01-17T21:19:36.583Z,3.81
2023-01-17T21:22:06.780Z,3.73
2023-01-17T21:24:36.782Z,3.68
2023-01-17T21:27:06.964Z,3.65
2023-01-17T21:29:36.988Z,3.64
2023-01-17T21:32:22.232Z,3.65
2023-01-17T21:34:57.469Z,3.65
2023-01-17T21:37:27.447Z,3.64
2023-01-17T21:40:00.337Z,3.62
2023-01-17T21:42:31.270Z,3.58
2023-01-17T21:45:01.582Z,3.62
2023-01-17T21:47:32.100Z,3.68
2023-01-17T21:50:04.690Z,3.72
2023-01-17T21:52:34.715Z,3.78
2023-01-17T21:55:17.128Z,3.79
2023-01-17T21:57:59.711Z,3.80
2023-01-17T22:00:30.011Z,3.77
2023-01-17T22:03:00.019Z,3.73
2023-01-17T22:05:32.617Z,3.68
2023-01-17T22:08:15.302Z,3.66
2023-01-17T22:10:48.650Z,3.63
2023-01-17T22:13:20.081Z,3.61
2023-01-17T22:16:01.264Z,3.61
2023-01-17T22:18:31.620Z,3.64
2023-01-17T22:21:21.972Z,3.61
2023-01-17T22:23:57.909Z,3.60
2023-01-17T22:26:30.474Z,3.55
2023-01-17T22:29:04.393Z,3.47
2023-01-17T22:31:34.434Z,3.44
2023-01-17T22:34:07.015Z,3.44
2023-01-17T22:36:39.640Z,3.40
2023-01-17T22:39:09.650Z,3.45
2023-01-17T22:41:41.280Z,3.47
2023-01-17T22:44:11.305Z,3.49
2023-01-17T22:46:42.235Z,3.51
2023-01-17T22:49:16.895Z,3.48
2023-01-17T22:51:50.240Z,3.43
2023-01-17T22:54:20.237Z,3.39
2023-01-17T22:56:50.233Z,3.42
2023-01-17T22:59:20.165Z,3.45
2023-01-17T23:01:50.138Z,3.40
2023-01-17T23:04:20.084Z,3.44
2023-01-17T23:06:53.568Z,3.48
2023-01-17T23:09:23.572Z,3.45
2023-01-17T23:11:55.283Z,3.45
2023-01-17T23:14:27.970Z,3.47
2023-01-17T23:17:26.776Z,3.51
2023-01-17T23:19:57.177Z,3.55
2023-01-17T23:22:31.892Z,3.53
2023-01-17T23:25:04.119Z,3.49
2023-01-17T23:27:48.267Z,3.44
2023-01-17T23:30:20.080Z,3.37
2023-01-17T23:32:51.501Z,3.32
2023-01-17T23:35:23.217Z,3.30
2023-01-17T23:38:08.350Z,3.29
2023-01-17T23:40:40.373Z,3.26
2023-01-17T23:43:24.724Z,3.27
2023-01-17T23:45:55.792Z,3.23
2023-01-17T23:48:26.447Z,3.20
2023-01-17T23:51:01.195Z,3.15
2023-01-17T23:53:33.997Z,3.17
2023-01-17T23:56:08.703Z,3.13
2023-01-17T23:58:38.706Z,3.10
